createdAt,value
2018-06-13T00:01:32.076Z,14.80
2018-06-13T00:04:00.687Z,14.70
2018-06-13T00:06:29.164Z,14.70
2018-06-13T00:08:57.739Z,14.60
2018-06-13T00:11:26.250Z,14.70
2018-06-13T00:13:54.724Z,14.60
2018-06-13T00:16:23.324Z,14.60
2018-06-13T00:18:51.790Z,14.60
2018-06-13T00:21:20.270Z,14.60
2018-06-13T00:23:48.715Z,14.50
2018-06-13T00:26:17.214Z,14.60
2018-06-13T00:28:45.687Z,14.60
2018-06-13T00:31:14.199Z,14.60
2018-06-13T00:33:42.681Z,14.60
2018-06-13T00:36:11.136Z,14.50
2018-06-13T00:38:39.682Z,14.50
2018-06-13T00:41:08.656Z,14.50
2018-06-13T00:43:37.776Z,14.40
2018-06-13T00:46:06.340Z,14.30
2018-06-13T00:48:34.884Z,14.30
2018-06-13T00:51:03.405Z,14.20
2018-06-13T00:53:31.951Z,14.10
2018-06-13T00:56:11.852Z,14.10
2018-06-13T00:58:40.475Z,14.10
2018-06-13T01:01:08.994Z,14.10
2018-06-13T01:03:37.471Z,14.10
2018-06-13T01:06:06.056Z,14.00
2018-06-13T01:08:34.506Z,14.00
2018-06-13T01:11:02.984Z,14.10
2018-06-13T01:13:31.536Z,14.00
2018-06-13T01:16:00.189Z,13.90
2018-06-13T01:18:28.711Z,14.00
2018-06-13T01:20:57.152Z,13.90
2018-06-13T01:23:25.616Z,13.90
2018-06-13T01:25:54.093Z,14.00
2018-06-13T01:28:22.576Z,13.90
2018-06-13T01:30:51.213Z,13.90
2018-06-13T01:33:19.797Z,13.90
2018-06-13T01:35:48.237Z,13.80
2018-06-13T01:38:16.749Z,13.90
2018-06-13T01:40:45.172Z,13.90
2018-06-13T01:43:13.684Z,13.90
2018-06-13T01:45:42.180Z,13.90
2018-06-13T01:48:10.645Z,13.80
2018-06-13T01:50:46.360Z,13.80
2018-06-13T01:53:14.906Z,13.70
2018-06-13T01:55:43.470Z,13.70
2018-06-13T01:58:11.921Z,13.70
2018-06-13T02:00:40.407Z,13.70
2018-06-13T02:03:08.977Z,13.70
2018-06-13T02:05:37.505Z,13.60
2018-06-13T02:08:05.951Z,13.70
2018-06-13T02:10:34.484Z,13.70
2018-06-13T02:13:03.092Z,13.70
2018-06-13T02:15:31.703Z,13.70
2018-06-13T02:18:00.221Z,13.70
2018-06-13T02:20:28.736Z,13.70
2018-06-13T02:22:57.216Z,13.60
2018-06-13T02:25:25.689Z,13.70
2018-06-13T02:27:54.164Z,13.70
2018-06-13T02:30:22.608Z,13.70
2018-06-13T02:32:51.168Z,13.70
2018-06-13T02:35:19.613Z,13.60
2018-06-13T02:37:48.121Z,13.60
2018-06-13T02:40:16.524Z,13.60
2018-06-13T02:42:44.959Z,13.60
2018-06-13T02:45:13.756Z,13.50
2018-06-13T02:47:42.240Z,13.50
2018-06-13T02:50:10.762Z,13.40
2018-06-13T02:52:39.203Z,13.50
2018-06-13T02:55:07.698Z,13.50
2018-06-13T02:57:36.231Z,13.50
2018-06-13T03:00:04.851Z,13.60
2018-06-13T03:02:33.272Z,13.60
2018-06-13T03:05:01.872Z,13.50
2018-06-13T03:07:30.306Z,13.50
2018-06-13T03:09:59.197Z,13.50
2018-06-13T03:12:27.639Z,13.50
2018-06-13T03:14:56.096Z,13.50
2018-06-13T03:17:24.615Z,13.50
2018-06-13T03:19:53.086Z,13.40
2018-06-13T03:22:21.816Z,13.50
2018-06-13T03:24:50.259Z,13.40
2018-06-13T03:27:18.800Z,13.40
2018-06-13T03:29:47.611Z,13.40
2018-06-13T03:32:16.097Z,13.40
2018-06-13T03:34:44.849Z,13.40
2018-06-13T03:37:13.440Z,13.30
2018-06-13T03:39:41.944Z,13.30
2018-06-13T03:42:10.561Z,13.30
2018-06-13T03:44:39.038Z,13.40
2018-06-13T03:47:07.480Z,13.40
2018-06-13T03:49:36.029Z,13.50
2018-06-13T03:52:04.615Z,13.50
2018-06-13T03:54:33.032Z,13.40
2018-06-13T03:57:01.472Z,13.40
2018-06-13T03:59:29.956Z,13.40
2018-06-13T04:01:58.460Z,13.40
2018-06-13T04:04:26.984Z,13.50
2018-06-13T04:06:55.551Z,13.40
2018-06-13T04:09:24.014Z,13.30
2018-06-13T04:11:52.543Z,13.30
2018-06-13T04:14:20.996Z,13.40
2018-06-13T04:16:49.421Z,13.40
2018-06-13T04:19:18.264Z,13.40
2018-06-13T04:21:46.781Z,13.40
2018-06-13T04:24:15.327Z,13.50
2018-06-13T04:26:43.989Z,13.50
2018-06-13T04:29:12.395Z,13.50
2018-06-13T04:31:40.900Z,13.50
2018-06-13T04:34:09.349Z,13.50
2018-06-13T04:36:37.820Z,13.50
2018-06-13T04:39:09.600Z,13.60
2018-06-13T04:41:38.273Z,13.60
2018-06-13T04:44:06.859Z,13.70
2018-06-13T04:46:35.289Z,13.90
2018-06-13T04:49:03.813Z,14.00
2018-06-13T04:51:32.223Z,14.00
2018-06-13T04:54:00.832Z,14.00
2018-06-13T04:56:29.306Z,14.10
2018-06-13T04:58:58.060Z,14.10
2018-06-13T05:01:26.662Z,14.20
2018-06-13T05:03:55.509Z,14.30
2018-06-13T05:06:24.097Z,14.30
2018-06-13T05:08:52.573Z,14.40
2018-06-13T05:11:21.036Z,14.50
2018-06-13T05:13:49.534Z,14.70
2018-06-13T05:16:18.160Z,14.80
2018-06-13T05:18:46.657Z,15.00
2018-06-13T05:21:15.171Z,15.00
2018-06-13T05:23:43.667Z,14.80
2018-06-13T05:26:12.383Z,14.80
2018-06-13T05:28:40.888Z,15.00
2018-06-13T05:31:09.416Z,14.80
2018-06-13T05:33:37.986Z,15.00
2018-06-13T05:38:34.581Z,15.10
2018-06-13T05:41:03.011Z,15.10
2018-06-13T05:43:31.496Z,14.90
2018-06-13T05:46:00.525Z,15.10
2018-06-13T05:48:29.860Z,15.20
2018-06-13T05:50:58.424Z,15.40
2018-06-13T05:53:26.884Z,15.40
2018-06-13T05:56:01.330Z,15.30
2018-06-13T05:58:30.214Z,15.30
2018-06-13T06:00:58.836Z,15.30
2018-06-13T06:03:27.394Z,15.50
2018-06-13T06:05:56.158Z,15.40
2018-06-13T06:08:24.610Z,15.20
2018-06-13T06:10:53.033Z,15.20
2018-06-13T06:13:21.504Z,15.10
2018-06-13T06:15:50.060Z,15.00
2018-06-13T06:18:18.528Z,14.90
2018-06-13T06:20:46.992Z,14.70
2018-06-13T06:23:15.721Z,14.60
2018-06-13T06:25:44.139Z,14.60
2018-06-13T06:28:12.585Z,14.50
2018-06-13T06:30:41.133Z,14.30
2018-06-13T06:33:09.603Z,14.30
2018-06-13T06:35:38.041Z,14.30
2018-06-13T06:38:06.736Z,14.20
2018-06-13T06:40:35.652Z,14.20
2018-06-13T06:43:04.094Z,14.30
2018-06-13T06:45:32.550Z,14.30
2018-06-13T06:48:01.072Z,14.50
2018-06-13T06:50:29.581Z,14.80
2018-06-13T06:52:58.101Z,15.10
2018-06-13T06:55:26.671Z,14.80
2018-06-13T06:57:55.063Z,15.20
2018-06-13T07:00:23.550Z,15.30
2018-06-13T07:02:52.753Z,15.70
2018-06-13T07:05:21.186Z,15.80
2018-06-13T07:07:49.903Z,15.90
2018-06-13T07:10:18.356Z,16.10
2018-06-13T07:12:46.817Z,16.30
2018-06-13T07:15:15.304Z,16.40
2018-06-13T07:17:43.738Z,16.50
2018-06-13T07:20:12.268Z,16.60
2018-06-13T07:25:08.976Z,16.00
2018-06-13T07:27:38.193Z,15.80
2018-06-13T07:30:06.686Z,15.60
2018-06-13T07:32:35.124Z,15.50
2018-06-13T07:35:03.624Z,15.30
2018-06-13T07:37:32.094Z,15.20
2018-06-13T07:40:00.950Z,15.50
2018-06-13T07:42:29.711Z,15.30
2018-06-13T07:44:58.141Z,15.40
2018-06-13T07:47:26.919Z,15.70
2018-06-13T07:49:55.688Z,15.60
2018-06-13T07:52:24.200Z,15.60
2018-06-13T07:54:52.912Z,15.60
2018-06-13T07:57:21.374Z,15.50
2018-06-13T07:59:50.090Z,15.50
2018-06-13T08:02:18.560Z,15.60
2018-06-13T08:04:46.985Z,15.50
2018-06-13T08:07:15.493Z,15.50
2018-06-13T08:09:43.984Z,15.40
2018-06-13T08:12:12.615Z,15.40
2018-06-13T08:14:41.061Z,15.50
2018-06-13T08:17:09.512Z,15.20
2018-06-13T08:19:38.069Z,15.40
2018-06-13T08:22:06.879Z,15.80
2018-06-13T08:24:46.520Z,15.80
2018-06-13T08:27:15.144Z,15.70
2018-06-13T08:29:43.650Z,15.70
2018-06-13T08:32:12.095Z,15.60
2018-06-13T08:34:40.733Z,15.60
2018-06-13T08:37:09.393Z,15.70
2018-06-13T08:39:38.730Z,15.70
2018-06-13T08:42:07.216Z,15.70
2018-06-13T08:44:35.704Z,15.50
2018-06-13T08:47:04.166Z,15.60
2018-06-13T08:49:32.757Z,15.70
2018-06-13T08:52:01.973Z,15.60
2018-06-13T08:54:30.558Z,15.40
2018-06-13T08:56:59.037Z,15.30
2018-06-13T08:59:27.559Z,15.30
2018-06-13T09:01:55.966Z,15.30
2018-06-13T09:04:24.464Z,15.10
2018-06-13T09:06:53.054Z,15.10
2018-06-13T09:09:21.598Z,15.10
2018-06-13T09:11:50.113Z,15.20
2018-06-13T09:14:18.597Z,15.10
2018-06-13T09:16:47.053Z,15.30
2018-06-13T09:19:15.509Z,15.30
2018-06-13T09:21:43.956Z,15.30
2018-06-13T09:24:12.442Z,15.40
2018-06-13T09:26:40.997Z,15.50
2018-06-13T09:29:09.449Z,15.60
2018-06-13T09:31:37.923Z,15.70
2018-06-13T09:34:06.332Z,15.90
2018-06-13T09:36:34.840Z,15.80
2018-06-13T09:39:03.673Z,15.70
2018-06-13T09:41:32.279Z,15.60
2018-06-13T09:44:00.782Z,15.70
2018-06-13T09:46:29.270Z,15.80
2018-06-13T09:48:57.855Z,15.90
2018-06-13T09:51:26.917Z,16.00
2018-06-13T09:53:55.385Z,16.00
2018-06-13T09:56:23.828Z,16.20
2018-06-13T09:58:57.655Z,16.20
2018-06-13T10:01:31.386Z,16.00
2018-06-13T10:03:59.958Z,16.20
2018-06-13T10:06:28.425Z,16.10
2018-06-13T10:08:57.312Z,16.20
2018-06-13T10:11:25.853Z,16.10
2018-06-13T10:13:55.067Z,16.20
2018-06-13T10:16:23.562Z,16.20
2018-06-13T10:18:52.160Z,16.30
2018-06-13T10:21:20.612Z,16.50
2018-06-13T10:23:49.065Z,16.30
2018-06-13T10:26:17.552Z,16.30
2018-06-13T10:28:46.017Z,16.30
2018-06-13T10:31:14.486Z,16.60
2018-06-13T10:33:42.908Z,16.70
2018-06-13T10:36:11.375Z,17.00
2018-06-13T10:38:42.708Z,17.30
2018-06-13T10:41:11.231Z,17.20
2018-06-13T10:43:39.781Z,17.10
2018-06-13T10:46:08.276Z,16.90
2018-06-13T10:48:36.784Z,17.00
2018-06-13T10:51:05.308Z,16.80
2018-06-13T10:53:33.773Z,16.90
2018-06-13T10:56:02.298Z,16.60
2018-06-13T10:58:30.745Z,16.50
2018-06-13T11:00:59.263Z,16.40
2018-06-13T11:05:55.832Z,16.50
2018-06-13T11:08:24.435Z,16.30
2018-06-13T11:10:52.966Z,16.10
2018-06-13T11:13:21.438Z,16.10
2018-06-13T11:15:50.090Z,16.00
2018-06-13T11:18:18.597Z,15.90
2018-06-13T11:20:47.051Z,15.80
2018-06-13T11:23:15.476Z,15.90
2018-06-13T11:25:44.002Z,16.00
2018-06-13T11:28:12.468Z,16.00
2018-06-13T11:30:40.923Z,16.20
2018-06-13T11:33:09.555Z,16.30
2018-06-13T11:35:38.093Z,16.40
2018-06-13T11:38:06.548Z,16.60
2018-06-13T11:40:35.048Z,16.70
2018-06-13T11:43:03.520Z,16.80
2018-06-13T11:45:32.026Z,17.10
2018-06-13T11:48:00.490Z,17.30
2018-06-13T11:50:28.942Z,17.30
2018-06-13T11:52:57.689Z,17.30
2018-06-13T11:55:26.291Z,17.30
2018-06-13T11:57:54.920Z,17.10
2018-06-13T12:00:23.695Z,17.10
2018-06-13T12:02:52.137Z,17.00
2018-06-13T12:05:20.608Z,16.90
2018-06-13T12:07:49.119Z,17.00
2018-06-13T12:10:17.647Z,16.60
2018-06-13T12:12:46.135Z,16.60
2018-06-13T12:15:15.181Z,16.80
2018-06-13T12:17:45.351Z,16.90
2018-06-13T12:20:13.788Z,16.90
2018-06-13T12:22:46.928Z,16.90
2018-06-13T12:25:15.821Z,17.00
2018-06-13T12:27:44.322Z,17.00
2018-06-13T12:30:13.211Z,16.90
2018-06-13T12:32:41.698Z,17.00
2018-06-13T12:35:10.372Z,17.10
2018-06-13T12:37:38.985Z,17.00
2018-06-13T12:40:11.833Z,17.10
2018-06-13T12:42:40.951Z,17.10
2018-06-13T12:45:09.845Z,17.10
2018-06-13T12:47:39.081Z,17.20
2018-06-13T12:50:07.581Z,17.40
2018-06-13T12:52:36.266Z,17.60
2018-06-13T12:55:05.140Z,17.80
2018-06-13T12:57:35.392Z,18.00
2018-06-13T13:00:04.053Z,17.80
2018-06-13T13:02:32.506Z,17.80
2018-06-13T13:05:01.032Z,17.70
2018-06-13T13:07:29.533Z,17.60
2018-06-13T13:10:00.726Z,17.70
2018-06-13T13:12:31.193Z,17.60
2018-06-13T13:14:59.997Z,17.60
2018-06-13T13:17:28.781Z,17.50
2018-06-13T13:19:57.425Z,17.70
2018-06-13T13:22:26.937Z,17.80
2018-06-13T13:24:55.558Z,18.00
2018-06-13T13:27:24.142Z,18.50
2018-06-13T13:29:52.738Z,19.00
2018-06-13T13:32:21.231Z,18.90
2018-06-13T13:37:18.365Z,18.60
2018-06-13T13:39:47.551Z,18.60
2018-06-13T13:42:16.162Z,18.60
2018-06-13T13:44:44.959Z,18.60
2018-06-13T13:47:13.465Z,18.70
2018-06-13T13:49:42.231Z,18.70
2018-06-13T13:52:10.969Z,18.80
2018-06-13T13:54:39.511Z,18.80
2018-06-13T13:57:08.103Z,18.90
2018-06-13T13:59:36.592Z,18.70
2018-06-13T14:02:05.557Z,18.40
2018-06-13T14:04:34.148Z,18.20
2018-06-13T14:07:02.735Z,18.10
2018-06-13T14:09:31.643Z,18.40
2018-06-13T14:12:00.530Z,18.80
2018-06-13T14:14:29.165Z,18.80
2018-06-13T14:17:01.104Z,18.70
2018-06-13T14:19:29.633Z,18.70
2018-06-13T14:21:58.309Z,18.50
2018-06-13T14:24:29.428Z,18.20
2018-06-13T14:26:58.000Z,18.30
2018-06-13T14:29:26.586Z,18.20
2018-06-13T14:31:55.637Z,18.30
2018-06-13T14:34:24.114Z,18.70
2018-06-13T14:36:53.191Z,19.00
2018-06-13T14:39:22.107Z,19.00
2018-06-13T14:41:50.657Z,18.90
2018-06-13T14:44:19.315Z,18.90
2018-06-13T14:46:48.025Z,19.00
2018-06-13T14:49:16.876Z,19.00
2018-06-13T14:51:47.580Z,19.00
2018-06-13T14:54:16.150Z,18.80
2018-06-13T14:56:45.485Z,18.70
2018-06-13T14:59:15.738Z,18.60
2018-06-13T15:01:44.462Z,18.50
2018-06-13T15:04:14.962Z,18.60
2018-06-13T15:06:43.704Z,18.60
2018-06-13T15:09:12.379Z,18.60
2018-06-13T15:11:40.936Z,18.50
2018-06-13T15:14:09.463Z,18.70
2018-06-13T15:16:38.315Z,18.80
2018-06-13T15:19:07.262Z,18.70
2018-06-13T15:21:35.970Z,18.60
2018-06-13T15:24:04.526Z,18.70
2018-06-13T15:26:33.364Z,18.50
2018-06-13T15:29:02.404Z,18.50
2018-06-13T15:31:30.997Z,18.50
2018-06-13T15:33:59.561Z,18.40
2018-06-13T15:36:28.155Z,18.60
2018-06-13T15:38:56.685Z,18.60
2018-06-13T15:41:25.490Z,18.60
2018-06-13T15:43:54.144Z,19.00
2018-06-13T15:46:22.890Z,18.80
2018-06-13T15:51:20.107Z,19.10
2018-06-13T15:53:48.675Z,18.90
2018-06-13T15:56:17.383Z,19.00
2018-06-13T15:58:46.078Z,18.80
2018-06-13T16:01:14.903Z,18.60
2018-06-13T16:03:43.490Z,18.60
2018-06-13T16:06:12.157Z,18.30
2018-06-13T16:08:40.745Z,18.20
2018-06-13T16:11:09.286Z,18.00
2018-06-13T16:13:37.918Z,18.00
2018-06-13T16:16:06.527Z,18.30
2018-06-13T16:18:35.153Z,18.20
2018-06-13T16:21:03.978Z,18.20
2018-06-13T16:23:32.708Z,18.20
2018-06-13T16:26:01.485Z,18.20
2018-06-13T16:28:30.013Z,18.10
2018-06-13T16:30:58.810Z,18.20
2018-06-13T16:33:27.473Z,18.30
2018-06-13T16:35:56.100Z,18.20
2018-06-13T16:38:24.660Z,18.20
2018-06-13T16:40:53.162Z,18.20
2018-06-13T16:43:21.799Z,18.10
2018-06-13T16:45:50.478Z,18.20
2018-06-13T16:48:19.495Z,18.00
2018-06-13T16:50:59.967Z,18.20
2018-06-13T16:53:50.911Z,18.20
2018-06-13T16:56:19.556Z,18.30
2018-06-13T16:58:48.764Z,18.20
2018-06-13T17:01:17.363Z,18.20
2018-06-13T17:03:46.026Z,18.20
2018-06-13T17:06:18.445Z,18.30
2018-06-13T17:08:48.381Z,18.40
2018-06-13T17:11:18.082Z,18.50
2018-06-13T17:13:49.047Z,18.30
2018-06-13T17:16:17.663Z,18.30
2018-06-13T17:18:46.165Z,18.40
2018-06-13T17:21:15.535Z,18.20
2018-06-13T17:23:44.329Z,18.10
2018-06-13T17:26:13.580Z,18.10
2018-06-13T17:28:57.306Z,18.10
2018-06-13T17:31:26.708Z,18.00
2018-06-13T17:33:56.000Z,18.00
2018-06-13T17:36:24.578Z,17.90
2018-06-13T17:38:53.138Z,17.80
2018-06-13T17:41:21.807Z,17.80
2018-06-13T17:43:50.569Z,17.80
2018-06-13T17:46:19.710Z,17.90
2018-06-13T17:48:48.339Z,18.00
2018-06-13T17:51:17.251Z,17.90
2018-06-13T17:53:45.815Z,17.90
2018-06-13T17:56:17.150Z,17.90
2018-06-13T17:58:45.700Z,17.70
2018-06-13T18:01:14.701Z,17.80
2018-06-13T18:03:43.304Z,17.80
2018-06-13T18:06:12.090Z,17.80
2018-06-13T18:08:40.761Z,17.70
2018-06-13T18:11:09.381Z,17.60
2018-06-13T18:13:38.092Z,17.50
2018-06-13T18:16:06.764Z,17.70
2018-06-13T18:18:35.228Z,17.60
2018-06-13T18:21:03.705Z,17.70
2018-06-13T18:23:32.349Z,17.80
2018-06-13T18:26:00.799Z,17.70
2018-06-13T18:28:30.514Z,17.70
2018-06-13T18:30:59.087Z,17.60
2018-06-13T18:35:55.940Z,17.50
2018-06-13T18:38:24.516Z,17.50
2018-06-13T18:40:53.087Z,17.40
2018-06-13T18:43:22.105Z,17.40
2018-06-13T18:45:50.662Z,17.30
2018-06-13T18:48:19.264Z,17.10
2018-06-13T18:50:48.097Z,17.00
2018-06-13T18:53:17.371Z,16.90
2018-06-13T18:55:46.053Z,16.80
2018-06-13T18:58:17.563Z,16.80
2018-06-13T19:00:46.134Z,16.70
2018-06-13T19:03:15.569Z,16.60
2018-06-13T19:08:12.432Z,16.50
2018-06-13T19:10:41.047Z,16.50
2018-06-13T19:13:09.524Z,16.40
2018-06-13T19:15:38.296Z,16.40
2018-06-13T19:20:35.018Z,16.30
2018-06-13T19:23:03.539Z,16.20
2018-06-13T19:28:00.378Z,16.00
2018-06-13T19:30:28.999Z,15.80
2018-06-13T19:32:57.618Z,15.80
2018-06-13T19:35:26.175Z,15.70
2018-06-13T19:37:54.741Z,15.60
2018-06-13T19:40:23.232Z,15.50
2018-06-13T19:42:52.120Z,15.40
2018-06-13T19:45:20.974Z,15.30
2018-06-13T19:47:54.946Z,15.20
2018-06-13T19:50:23.670Z,15.20
2018-06-13T19:52:57.628Z,15.10
2018-06-13T19:56:31.696Z,15.00
2018-06-13T19:59:00.375Z,14.90
2018-06-13T20:01:28.997Z,14.80
2018-06-13T20:04:02.815Z,14.80
2018-06-13T20:06:31.308Z,14.80
2018-06-13T20:09:00.088Z,14.70
2018-06-13T20:11:29.969Z,14.60
2018-06-13T20:14:03.906Z,14.50
2018-06-13T20:16:49.055Z,14.40
2018-06-13T20:19:23.430Z,14.40
2018-06-13T20:24:21.286Z,14.30
2018-06-13T20:26:55.175Z,14.30
2018-06-13T20:29:29.148Z,14.30
2018-06-13T20:31:57.637Z,14.30
2018-06-13T20:34:27.060Z,14.20
2018-06-13T20:36:55.663Z,14.20
2018-06-13T20:39:24.205Z,14.10
2018-06-13T20:41:53.084Z,14.10
2018-06-13T20:46:49.867Z,13.90
2018-06-13T20:49:18.499Z,13.80
2018-06-13T20:51:47.231Z,13.80
2018-06-13T20:54:15.684Z,13.70
2018-06-13T20:56:44.476Z,13.70
2018-06-13T20:59:13.007Z,13.70
2018-06-13T21:01:41.540Z,13.60
2018-06-13T21:04:09.995Z,13.60
2018-06-13T21:06:38.478Z,13.60
2018-06-13T21:09:08.685Z,13.50
2018-06-13T21:11:37.707Z,13.50
2018-06-13T21:16:34.568Z,13.30
2018-06-13T21:19:04.276Z,13.30
2018-06-13T21:21:33.710Z,13.30
2018-06-13T21:24:02.594Z,13.30
2018-06-13T21:26:31.275Z,13.20
2018-06-13T21:28:59.819Z,13.20
2018-06-13T21:31:28.268Z,13.10
2018-06-13T21:33:56.700Z,13.10
2018-06-13T21:36:25.176Z,13.10
2018-06-13T21:38:53.648Z,13.00
2018-06-13T21:41:22.182Z,13.00
2018-06-13T21:43:50.922Z,12.90
2018-06-13T21:46:19.385Z,12.90
2018-06-13T21:51:16.001Z,12.90
2018-06-13T21:53:44.473Z,12.80
2018-06-13T21:56:13.009Z,12.90
2018-06-13T21:58:41.692Z,12.80
2018-06-13T22:01:10.108Z,12.80
2018-06-13T22:03:38.689Z,12.70
2018-06-13T22:06:07.185Z,12.70
2018-06-13T22:08:35.649Z,12.70
2018-06-13T22:11:04.157Z,12.70
2018-06-13T22:13:33.282Z,12.70
2018-06-13T22:16:01.771Z,12.70
2018-06-13T22:18:30.239Z,12.60
2018-06-13T22:20:58.744Z,12.50
2018-06-13T22:23:27.346Z,12.60
2018-06-13T22:25:55.797Z,12.50
2018-06-13T22:28:24.257Z,12.50
2018-06-13T22:30:52.697Z,12.50
2018-06-13T22:33:21.128Z,12.50
2018-06-13T22:38:17.833Z,12.40
2018-06-13T22:40:46.380Z,12.30
2018-06-13T22:43:14.887Z,12.30
2018-06-13T22:45:43.435Z,12.30
2018-06-13T22:48:12.282Z,12.30
2018-06-13T22:50:41.116Z,12.40
2018-06-13T22:53:09.749Z,12.40
2018-06-13T22:55:38.363Z,12.30
2018-06-13T22:58:06.828Z,12.30
2018-06-13T23:01:04.596Z,12.30
2018-06-13T23:03:33.406Z,12.30
2018-06-13T23:06:03.308Z,12.20
2018-06-13T23:08:33.214Z,12.20
2018-06-13T23:11:01.846Z,12.20
2018-06-13T23:13:30.375Z,12.20
2018-06-13T23:15:58.829Z,12.20
2018-06-13T23:18:28.265Z,12.10
2018-06-13T23:20:56.861Z,12.10
2018-06-13T23:23:25.469Z,12.10
2018-06-13T23:25:55.182Z,12.10
2018-06-13T23:28:23.846Z,12.10
2018-06-13T23:30:52.609Z,12.00
2018-06-13T23:33:21.201Z,12.00
2018-06-13T23:35:49.669Z,11.90
2018-06-13T23:38:18.135Z,11.90
2018-06-13T23:40:46.932Z,11.80
2018-06-13T23:43:15.424Z,11.80
2018-06-13T23:45:44.151Z,11.80
2018-06-13T23:48:13.106Z,11.90
2018-06-13T23:50:41.625Z,11.90
2018-06-13T23:53:10.657Z,11.90
2018-06-13T23:55:39.165Z,11.80
2018-06-13T23:58:07.610Z,11.80
